createdAt,value
2019-01-20T00:00:53.651Z,0.50
2019-01-20T00:03:21.675Z,0.50
2019-01-20T00:05:49.691Z,0.73
2019-01-20T00:08:17.627Z,0.70
2019-01-20T00:10:45.524Z,0.70
2019-01-20T00:13:13.775Z,0.70
2019-01-20T00:15:42.488Z,0.70
2019-01-20T00:18:10.426Z,0.33
2019-01-20T00:20:38.355Z,0.60
2019-01-20T00:23:06.329Z,0.70
2019-01-20T00:25:34.248Z,0.60
2019-01-20T00:28:02.156Z,0.90
2019-01-20T00:30:30.109Z,0.70
2019-01-20T00:32:58.047Z,0.87
2019-01-20T00:35:25.964Z,0.40
2019-01-20T00:37:53.984Z,0.60
2019-01-20T00:40:22.039Z,0.73
2019-01-20T00:42:50.008Z,0.83
2019-01-20T00:45:18.071Z,0.50
2019-01-20T00:47:46.171Z,0.80
2019-01-20T00:50:14.734Z,0.57
2019-01-20T00:52:43.122Z,0.63
2019-01-20T00:55:11.980Z,0.43
2019-01-20T00:57:40.731Z,0.50
2019-01-20T01:00:22.366Z,0.70
2019-01-20T01:02:51.443Z,0.80
2019-01-20T01:05:19.525Z,1.10
2019-01-20T01:07:47.653Z,1.00
2019-01-20T01:10:17.335Z,0.93
2019-01-20T01:12:45.520Z,0.50
2019-01-20T01:15:13.636Z,0.70
2019-01-20T01:17:41.581Z,0.87
2019-01-20T01:20:10.711Z,0.50
2019-01-20T01:22:38.627Z,0.40
2019-01-20T01:25:07.481Z,0.60
2019-01-20T01:27:35.410Z,0.60
2019-01-20T01:30:03.925Z,0.40
2019-01-20T01:32:31.833Z,0.33
2019-01-20T01:34:59.851Z,0.60
2019-01-20T01:37:27.788Z,0.30
2019-01-20T01:39:55.680Z,0.40
2019-01-20T01:42:23.728Z,0.40
2019-01-20T01:44:51.623Z,0.57
2019-01-20T01:47:19.624Z,0.47
2019-01-20T01:49:48.591Z,0.50
2019-01-20T01:52:16.500Z,0.67
2019-01-20T01:54:44.432Z,0.53
2019-01-20T01:57:12.348Z,0.43
2019-01-20T01:59:40.331Z,0.27
2019-01-20T02:02:08.308Z,0.23
2019-01-20T02:04:36.239Z,0.33
2019-01-20T02:07:04.163Z,0.33
2019-01-20T02:09:32.060Z,0.13
2019-01-20T02:12:00.096Z,0.20
2019-01-20T02:14:30.383Z,0.20
2019-01-20T02:16:58.326Z,0.30
2019-01-20T02:19:26.632Z,0.43
2019-01-20T02:21:54.613Z,0.10
2019-01-20T02:24:22.500Z,0.30
2019-01-20T02:26:50.446Z,0.40
2019-01-20T02:29:18.348Z,0.60
2019-01-20T02:31:46.319Z,0.30
2019-01-20T02:34:20.335Z,0.50
2019-01-20T02:36:49.600Z,0.50
2019-01-20T02:39:17.515Z,0.50
2019-01-20T02:41:54.863Z,0.40
2019-01-20T02:44:18.575Z,0.33
2019-01-20T02:46:46.478Z,0.40
2019-01-20T02:49:14.400Z,0.10
2019-01-20T02:51:42.351Z,0.60
2019-01-20T02:54:10.315Z,0.37
2019-01-20T02:56:38.227Z,0.20
2019-01-20T02:59:06.221Z,0.37
2019-01-20T03:01:34.265Z,0.40
2019-01-20T03:04:02.264Z,0.40
2019-01-20T03:06:31.544Z,0.37
2019-01-20T03:08:59.519Z,0.37
2019-01-20T03:11:27.428Z,0.47
2019-01-20T03:13:55.315Z,0.17
2019-01-20T03:16:23.220Z,0.50
2019-01-20T03:18:51.189Z,0.20
2019-01-20T03:21:19.084Z,0.60
2019-01-20T03:23:47.109Z,0.40
2019-01-20T03:26:15.063Z,0.20
2019-01-20T03:28:42.993Z,0.30
2019-01-20T03:31:10.920Z,0.40
2019-01-20T03:33:38.875Z,0.33
2019-01-20T03:36:06.785Z,0.37
2019-01-20T03:38:34.827Z,0.30
2019-01-20T03:41:02.738Z,0.63
2019-01-20T03:43:30.700Z,0.70
2019-01-20T03:45:58.611Z,0.70
2019-01-20T03:48:26.500Z,0.57
2019-01-20T03:50:54.539Z,0.53
2019-01-20T03:53:22.478Z,0.20
2019-01-20T03:55:50.398Z,0.40
2019-01-20T03:58:20.548Z,0.37
2019-01-20T04:00:48.653Z,0.30
2019-01-20T04:03:16.756Z,0.40
2019-01-20T04:05:47.167Z,0.60
2019-01-20T04:08:15.054Z,0.50
2019-01-20T04:10:46.358Z,0.53
2019-01-20T04:13:16.800Z,0.23
2019-01-20T04:15:44.760Z,0.17
2019-01-20T04:18:12.704Z,0.60
2019-01-20T04:20:40.624Z,0.37
2019-01-20T04:23:08.593Z,0.40
2019-01-20T04:25:36.566Z,0.20
2019-01-20T04:28:04.573Z,0.30
2019-01-20T04:30:32.663Z,0.37
2019-01-20T04:33:00.585Z,0.30
2019-01-20T04:35:28.594Z,0.20
2019-01-20T04:37:56.594Z,0.40
2019-01-20T04:40:26.255Z,0.30
2019-01-20T04:42:54.160Z,0.33
2019-01-20T04:45:22.099Z,0.37
2019-01-20T04:47:50.150Z,0.43
2019-01-20T04:50:19.432Z,0.37
2019-01-20T04:52:47.415Z,0.40
2019-01-20T04:55:16.757Z,0.43
2019-01-20T04:57:48.324Z,0.40
2019-01-20T05:00:17.420Z,0.17
2019-01-20T05:02:45.406Z,0.33
2019-01-20T05:05:13.537Z,0.40
2019-01-20T05:07:41.510Z,0.23
2019-01-20T05:10:10.329Z,0.43
2019-01-20T05:12:38.339Z,0.40
2019-01-20T05:15:08.591Z,0.43
2019-01-20T05:17:36.496Z,0.50
2019-01-20T05:20:05.438Z,0.30
2019-01-20T05:22:33.429Z,0.30
2019-01-20T05:25:01.371Z,0.47
2019-01-20T05:27:29.397Z,0.40
2019-01-20T05:29:59.512Z,0.50
2019-01-20T05:32:27.499Z,0.10
2019-01-20T05:34:56.922Z,0.40
2019-01-20T05:37:25.047Z,0.40
2019-01-20T05:39:53.020Z,0.50
2019-01-20T05:42:21.011Z,0.60
2019-01-20T05:44:48.909Z,0.60
2019-01-20T05:47:16.887Z,0.50
2019-01-20T05:49:44.794Z,0.30
2019-01-20T05:52:12.705Z,0.30
2019-01-20T05:54:40.595Z,0.50
2019-01-20T05:57:08.486Z,0.47
2019-01-20T05:59:36.473Z,0.30
2019-01-20T06:02:04.489Z,0.30
2019-01-20T06:04:32.492Z,0.80
2019-01-20T06:07:00.398Z,0.57
2019-01-20T06:09:28.561Z,0.40
2019-01-20T06:11:56.464Z,0.40
2019-01-20T06:14:24.376Z,0.60
2019-01-20T06:16:52.321Z,0.30
2019-01-20T06:19:20.294Z,0.50
2019-01-20T06:21:48.314Z,0.10
2019-01-20T06:24:16.311Z,0.33
2019-01-20T06:26:45.628Z,0.30
2019-01-20T06:29:13.595Z,0.30
2019-01-20T06:31:41.553Z,0.40
2019-01-20T06:34:09.439Z,0.40
2019-01-20T06:36:37.458Z,0.30
2019-01-20T06:39:09.250Z,0.33
2019-01-20T06:41:39.148Z,0.40
2019-01-20T06:44:07.093Z,0.27
2019-01-20T06:46:35.049Z,0.20
2019-01-20T06:49:02.984Z,0.43
2019-01-20T06:51:31.019Z,0.43
2019-01-20T06:53:58.963Z,0.30
2019-01-20T06:56:27.190Z,0.47
2019-01-20T06:58:55.261Z,0.40
2019-01-20T07:01:23.223Z,0.40
2019-01-20T07:03:53.064Z,0.33
2019-01-20T07:06:20.783Z,0.13
2019-01-20T07:08:48.800Z,0.40
2019-01-20T07:11:16.923Z,0.50
2019-01-20T07:13:44.955Z,0.60
2019-01-20T07:16:12.855Z,0.30
2019-01-20T07:18:40.766Z,0.40
2019-01-20T07:21:08.780Z,0.53
2019-01-20T07:23:36.666Z,0.40
2019-01-20T07:26:04.915Z,0.40
2019-01-20T07:28:32.915Z,0.50
2019-01-20T07:31:00.804Z,0.30
2019-01-20T07:33:30.691Z,0.33
2019-01-20T07:35:58.610Z,0.60
2019-01-20T07:38:26.724Z,0.43
2019-01-20T07:40:54.676Z,0.53
2019-01-20T07:43:22.599Z,0.50
2019-01-20T07:45:50.527Z,2.03
2019-01-20T07:48:18.466Z,0.77
2019-01-20T07:50:47.727Z,0.70
2019-01-20T07:53:17.535Z,0.97
2019-01-20T07:55:45.459Z,3.67
2019-01-20T07:58:13.441Z,0.80
2019-01-20T08:00:42.555Z,1.10
2019-01-20T08:03:10.503Z,1.47
2019-01-20T08:05:38.415Z,1.40
2019-01-20T08:08:07.143Z,0.97
2019-01-20T08:10:35.115Z,0.63
2019-01-20T08:13:03.855Z,0.73
2019-01-20T08:15:31.975Z,0.57
2019-01-20T08:17:59.956Z,0.50
2019-01-20T08:20:29.075Z,0.90
2019-01-20T08:22:56.999Z,1.10
2019-01-20T08:25:25.161Z,0.50
2019-01-20T08:27:53.182Z,0.40
2019-01-20T08:30:22.150Z,0.30
2019-01-20T08:32:50.140Z,0.80
2019-01-20T08:35:19.324Z,4.17
2019-01-20T08:37:47.524Z,0.90
2019-01-20T08:40:16.616Z,0.60
2019-01-20T08:42:45.699Z,0.60
2019-01-20T08:45:17.263Z,0.60
2019-01-20T08:47:47.454Z,0.73
2019-01-20T08:50:16.065Z,0.70
2019-01-20T08:52:44.073Z,0.73
2019-01-20T08:55:12.057Z,0.70
2019-01-20T08:57:40.043Z,2.07
2019-01-20T09:00:17.460Z,1.47
2019-01-20T09:02:45.429Z,1.20
2019-01-20T09:05:14.083Z,0.50
2019-01-20T09:07:43.182Z,0.80
2019-01-20T09:10:18.866Z,2.80
2019-01-20T09:12:46.935Z,1.60
2019-01-20T09:15:14.960Z,1.13
2019-01-20T09:17:42.987Z,0.50
2019-01-20T09:20:11.191Z,0.60
2019-01-20T09:22:39.223Z,0.83
2019-01-20T09:25:07.645Z,0.50
2019-01-20T09:27:35.654Z,0.73
2019-01-20T09:30:03.880Z,2.50
2019-01-20T09:32:31.829Z,2.27
2019-01-20T09:34:59.742Z,0.70
2019-01-20T09:37:27.744Z,1.00
2019-01-20T09:39:56.591Z,6.33
2019-01-20T09:42:26.806Z,1.10
2019-01-20T09:44:54.801Z,0.50
2019-01-20T09:47:22.953Z,1.67
2019-01-20T09:49:50.872Z,1.20
2019-01-20T09:52:18.944Z,0.63
2019-01-20T09:54:46.861Z,1.00
2019-01-20T09:57:14.860Z,0.93
2019-01-20T09:59:42.839Z,0.90
2019-01-20T10:02:10.756Z,1.00
2019-01-20T10:04:38.754Z,1.10
2019-01-20T10:07:06.681Z,1.30
2019-01-20T10:09:34.675Z,1.77
2019-01-20T10:12:02.615Z,0.87
2019-01-20T10:14:30.537Z,0.80
2019-01-20T10:17:01.362Z,0.90
2019-01-20T10:19:29.291Z,0.80
2019-01-20T10:21:57.205Z,1.00
2019-01-20T10:24:25.117Z,1.20
2019-01-20T10:26:53.189Z,1.27
2019-01-20T10:29:21.336Z,0.87
2019-01-20T10:31:49.263Z,0.90
2019-01-20T10:34:17.275Z,0.90
2019-01-20T10:36:45.329Z,0.90
2019-01-20T10:39:13.339Z,1.57
2019-01-20T10:41:44.366Z,1.20
2019-01-20T10:44:12.335Z,1.60
2019-01-20T10:46:40.337Z,1.47
2019-01-20T10:49:07.439Z,1.50
2019-01-20T10:51:35.384Z,1.60
2019-01-20T10:54:03.393Z,1.23
2019-01-20T10:56:31.367Z,1.23
2019-01-20T10:58:59.300Z,1.00
2019-01-20T11:01:27.204Z,0.83
2019-01-20T11:03:55.117Z,1.03
2019-01-20T11:06:23.024Z,0.57
2019-01-20T11:08:50.923Z,0.90
2019-01-20T11:11:18.873Z,0.87
2019-01-20T11:13:46.870Z,0.53
2019-01-20T11:16:14.820Z,0.70
2019-01-20T11:18:43.052Z,1.00
2019-01-20T11:21:11.044Z,0.80
2019-01-20T11:23:39.067Z,0.90
2019-01-20T11:26:08.182Z,1.10
2019-01-20T11:28:36.203Z,1.13
2019-01-20T11:31:04.235Z,0.97
2019-01-20T11:33:32.220Z,0.80
2019-01-20T11:36:00.327Z,0.70
2019-01-20T11:38:28.559Z,0.80
2019-01-20T11:40:56.775Z,0.80
2019-01-20T11:43:25.088Z,0.80
2019-01-20T11:45:52.988Z,1.23
2019-01-20T11:48:21.062Z,1.40
2019-01-20T11:50:49.046Z,1.80
2019-01-20T11:53:17.030Z,1.60
2019-01-20T11:55:45.231Z,1.57
2019-01-20T11:58:13.352Z,1.30
2019-01-20T12:00:42.451Z,1.10
2019-01-20T12:03:10.345Z,1.07
2019-01-20T12:05:39.298Z,1.00
2019-01-20T12:08:07.296Z,0.90
2019-01-20T12:10:35.498Z,0.90
2019-01-20T12:13:07.908Z,1.10
2019-01-20T12:15:35.940Z,1.10
2019-01-20T12:18:03.969Z,0.80
2019-01-20T12:20:33.593Z,0.90
2019-01-20T12:23:01.664Z,1.07
2019-01-20T12:25:29.657Z,1.30
2019-01-20T12:27:57.600Z,1.97
2019-01-20T12:30:26.416Z,1.80
2019-01-20T12:33:00.413Z,1.10
2019-01-20T12:35:28.381Z,0.80
2019-01-20T12:37:56.279Z,0.80
2019-01-20T12:40:25.681Z,0.60
2019-01-20T12:42:53.644Z,0.60
2019-01-20T12:45:21.556Z,0.80
2019-01-20T12:47:49.554Z,1.20
2019-01-20T12:50:17.675Z,0.80
2019-01-20T12:52:45.783Z,0.80
2019-01-20T12:55:13.831Z,0.60
2019-01-20T12:57:41.978Z,0.80
2019-01-20T13:00:11.047Z,0.90
2019-01-20T13:02:39.022Z,0.80
2019-01-20T13:05:07.295Z,0.70
2019-01-20T13:07:35.200Z,0.80
2019-01-20T13:10:03.886Z,0.77
2019-01-20T13:12:31.879Z,0.80
2019-01-20T13:14:59.874Z,0.83
2019-01-20T13:17:30.938Z,0.63
2019-01-20T13:19:58.971Z,0.60
2019-01-20T13:22:26.892Z,0.70
2019-01-20T13:24:54.839Z,0.50
2019-01-20T13:27:22.745Z,1.60
2019-01-20T13:29:50.660Z,1.23
2019-01-20T13:32:18.561Z,1.00
2019-01-20T13:34:49.436Z,0.60
2019-01-20T13:37:17.333Z,0.83
2019-01-20T13:39:45.306Z,0.90
2019-01-20T13:42:13.265Z,0.63
2019-01-20T13:44:46.236Z,0.70
2019-01-20T13:47:11.999Z,0.90
2019-01-20T13:49:40.036Z,0.93
2019-01-20T13:52:10.255Z,0.50
2019-01-20T13:54:38.148Z,0.80
2019-01-20T13:57:06.056Z,0.77
2019-01-20T13:59:33.955Z,0.97
2019-01-20T14:02:02.613Z,0.97
2019-01-20T14:04:30.514Z,0.73
2019-01-20T14:06:58.471Z,0.73
2019-01-20T14:09:26.425Z,0.63
2019-01-20T14:11:54.335Z,0.70
2019-01-20T14:14:22.307Z,0.70
2019-01-20T14:16:50.222Z,0.70
2019-01-20T14:19:21.846Z,0.93
2019-01-20T14:21:47.843Z,0.90
2019-01-20T14:24:15.823Z,0.70
2019-01-20T14:26:46.537Z,0.70
2019-01-20T14:29:14.460Z,0.70
2019-01-20T14:31:42.443Z,0.90
2019-01-20T14:34:10.435Z,0.90
2019-01-20T14:36:38.353Z,0.70
2019-01-20T14:39:12.857Z,0.50
2019-01-20T14:41:40.807Z,0.73
2019-01-20T14:44:09.974Z,0.90
2019-01-20T14:46:38.051Z,0.90
2019-01-20T14:49:06.027Z,0.90
2019-01-20T14:51:33.947Z,0.80
2019-01-20T14:54:02.015Z,0.90
2019-01-20T14:56:29.943Z,0.90
2019-01-20T14:58:57.941Z,0.70
2019-01-20T15:01:25.886Z,0.80
2019-01-20T15:03:56.772Z,0.90
2019-01-20T15:06:24.692Z,2.00
2019-01-20T15:08:52.673Z,1.50
2019-01-20T15:11:20.685Z,1.17
2019-01-20T15:13:51.112Z,1.53
2019-01-20T15:16:21.335Z,1.30
2019-01-20T15:18:50.500Z,1.13
2019-01-20T15:21:18.407Z,1.10
2019-01-20T15:23:46.330Z,0.90
2019-01-20T15:26:17.306Z,1.30
2019-01-20T15:28:46.988Z,0.90
2019-01-20T15:31:15.062Z,0.90
2019-01-20T15:33:43.075Z,0.90
2019-01-20T15:36:11.031Z,0.87
2019-01-20T15:38:39.012Z,1.10
2019-01-20T15:41:07.220Z,1.00
2019-01-20T15:43:35.149Z,1.00
2019-01-20T15:46:04.352Z,1.20
2019-01-20T15:48:32.240Z,1.03
2019-01-20T15:51:00.155Z,0.90
2019-01-20T15:53:28.060Z,1.00
2019-01-20T15:55:55.991Z,1.00
2019-01-20T15:58:23.987Z,0.70
2019-01-20T16:00:51.943Z,0.90
2019-01-20T16:03:19.854Z,0.90
2019-01-20T16:05:47.867Z,1.10
2019-01-20T16:08:15.923Z,1.17
2019-01-20T16:10:43.899Z,1.10
2019-01-20T16:13:11.808Z,1.20
2019-01-20T16:15:39.700Z,1.80
2019-01-20T16:18:07.652Z,1.20
2019-01-20T16:20:35.667Z,1.80
2019-01-20T16:23:04.348Z,2.30
2019-01-20T16:25:33.741Z,1.30
2019-01-20T16:28:04.851Z,1.17
2019-01-20T16:30:33.896Z,1.20
2019-01-20T16:33:01.875Z,1.13
2019-01-20T16:35:30.059Z,0.97
2019-01-20T16:37:58.471Z,0.90
2019-01-20T16:40:26.448Z,0.90
2019-01-20T16:42:54.542Z,0.80
2019-01-20T16:45:31.895Z,1.10
2019-01-20T16:47:55.108Z,1.27
2019-01-20T16:50:23.507Z,1.37
2019-01-20T16:52:54.810Z,1.70
2019-01-20T16:55:22.950Z,2.80
2019-01-20T16:57:50.867Z,2.10
2019-01-20T17:00:20.054Z,2.30
2019-01-20T17:02:48.062Z,1.60
2019-01-20T17:05:16.160Z,1.23
2019-01-20T17:07:44.304Z,1.63
2019-01-20T17:10:13.767Z,1.50
2019-01-20T17:12:41.653Z,1.97
2019-01-20T17:15:10.612Z,2.13
2019-01-20T17:17:38.492Z,1.90
2019-01-20T17:20:06.630Z,1.87
2019-01-20T17:22:34.527Z,1.73
2019-01-20T17:25:02.461Z,1.50
2019-01-20T17:27:30.377Z,1.53
2019-01-20T17:29:58.260Z,2.10
2019-01-20T17:32:26.200Z,1.90
2019-01-20T17:34:54.120Z,2.00
2019-01-20T17:37:22.130Z,2.53
2019-01-20T17:39:52.587Z,2.63
2019-01-20T17:42:21.709Z,3.03
2019-01-20T17:44:49.617Z,2.63
2019-01-20T17:47:17.599Z,3.03
2019-01-20T17:49:45.664Z,3.70
2019-01-20T17:52:13.579Z,2.83
2019-01-20T17:54:41.499Z,2.30
2019-01-20T17:57:09.909Z,1.80
2019-01-20T17:59:37.796Z,1.70
2019-01-20T18:02:05.718Z,1.70
2019-01-20T18:04:33.695Z,1.50
2019-01-20T18:07:01.612Z,1.60
2019-01-20T18:09:29.999Z,1.70
2019-01-20T18:12:00.551Z,1.70
2019-01-20T18:14:28.508Z,2.73
2019-01-20T18:16:56.566Z,2.90
2019-01-20T18:19:24.645Z,1.97
2019-01-20T18:21:52.584Z,2.10
2019-01-20T18:24:20.538Z,1.87
2019-01-20T18:26:48.469Z,1.70
2019-01-20T18:29:16.470Z,1.50
2019-01-20T18:31:44.375Z,1.47
2019-01-20T18:34:12.301Z,1.77
2019-01-20T18:36:42.766Z,2.07
2019-01-20T18:39:10.699Z,1.90
2019-01-20T18:41:38.588Z,2.00
2019-01-20T18:44:06.501Z,1.60
2019-01-20T18:46:34.508Z,1.60
2019-01-20T18:49:02.595Z,1.63
2019-01-20T18:51:30.709Z,1.57
2019-01-20T18:53:58.643Z,3.43
2019-01-20T18:56:26.559Z,2.10
2019-01-20T18:58:54.543Z,1.33
2019-01-20T19:01:24.252Z,1.40
2019-01-20T19:03:52.135Z,1.37
2019-01-20T19:06:20.064Z,1.50
2019-01-20T19:08:48.029Z,1.77
2019-01-20T19:11:16.123Z,1.50
2019-01-20T19:13:44.096Z,4.67
2019-01-20T19:16:14.151Z,6.40
2019-01-20T19:18:43.705Z,6.53
2019-01-20T19:21:12.980Z,2.27
2019-01-20T19:23:41.015Z,2.83
2019-01-20T19:26:08.972Z,2.60
2019-01-20T19:28:38.699Z,1.93
2019-01-20T19:31:06.608Z,1.67
2019-01-20T19:33:34.530Z,1.70
2019-01-20T19:36:02.635Z,3.00
2019-01-20T19:38:30.616Z,2.33
2019-01-20T19:40:59.887Z,3.10
2019-01-20T19:43:27.932Z,2.27
2019-01-20T19:45:55.924Z,2.13
2019-01-20T19:48:23.896Z,1.97
2019-01-20T19:50:51.863Z,1.60
2019-01-20T19:53:19.831Z,1.90
2019-01-20T19:55:47.776Z,1.33
2019-01-20T19:58:15.792Z,1.47
2019-01-20T20:00:43.801Z,1.80
2019-01-20T20:03:11.800Z,1.60
2019-01-20T20:05:39.728Z,2.63
2019-01-20T20:08:11.479Z,5.40
2019-01-20T20:10:42.034Z,5.10
2019-01-20T20:13:10.171Z,5.50
2019-01-20T20:15:38.155Z,5.10
2019-01-20T20:18:06.261Z,9.90
2019-01-20T20:20:34.152Z,3.97
2019-01-20T20:23:02.171Z,1.97
2019-01-20T20:25:30.094Z,1.40
2019-01-20T20:27:58.012Z,3.07
2019-01-20T20:30:27.200Z,3.57
2019-01-20T20:32:58.201Z,3.33
2019-01-20T20:35:26.134Z,6.10
2019-01-20T20:37:54.212Z,2.77
2019-01-20T20:40:22.192Z,1.33
2019-01-20T20:42:50.091Z,1.40
2019-01-20T20:45:19.060Z,1.67
2019-01-20T20:47:46.973Z,1.40
2019-01-20T20:50:15.370Z,2.27
2019-01-20T20:52:46.122Z,1.60
2019-01-20T20:55:13.225Z,1.80
2019-01-20T20:57:41.198Z,2.03
2019-01-20T21:00:20.038Z,2.43
2019-01-20T21:02:48.040Z,2.43
2019-01-20T21:05:15.931Z,4.03
2019-01-20T21:07:45.561Z,2.80
2019-01-20T21:10:14.241Z,3.07
2019-01-20T21:12:42.285Z,3.63
2019-01-20T21:15:10.808Z,1.53
2019-01-20T21:17:38.777Z,2.10
2019-01-20T21:20:07.696Z,1.63
2019-01-20T21:22:35.655Z,1.50
2019-01-20T21:25:04.336Z,1.47
2019-01-20T21:27:33.331Z,1.90
2019-01-20T21:30:01.314Z,2.00
2019-01-20T21:32:29.287Z,2.10
2019-01-20T21:34:57.171Z,1.70
2019-01-20T21:37:26.583Z,1.73
2019-01-20T21:39:54.559Z,1.90
2019-01-20T21:42:22.452Z,3.00
2019-01-20T21:44:51.556Z,2.40
2019-01-20T21:47:20.971Z,1.90
2019-01-20T21:49:48.995Z,2.17
2019-01-20T21:52:16.902Z,2.90
2019-01-20T21:54:44.795Z,1.60
2019-01-20T21:57:12.705Z,1.67
2019-01-20T21:59:40.611Z,1.40
2019-01-20T22:02:08.531Z,1.30
2019-01-20T22:04:36.464Z,1.77
2019-01-20T22:07:04.467Z,1.77
2019-01-20T22:09:32.611Z,1.60
2019-01-20T22:12:00.524Z,1.63
2019-01-20T22:14:28.436Z,1.80
2019-01-20T22:16:56.405Z,1.83
2019-01-20T22:19:26.024Z,2.03
2019-01-20T22:21:54.018Z,1.67
2019-01-20T22:24:24.445Z,2.10
2019-01-20T22:26:55.540Z,2.33
2019-01-20T22:29:23.430Z,2.93
2019-01-20T22:31:51.446Z,2.83
2019-01-20T22:34:21.747Z,2.60
2019-01-20T22:36:49.719Z,2.40
2019-01-20T22:39:17.640Z,1.27
2019-01-20T22:41:45.608Z,1.20
2019-01-20T22:44:13.594Z,1.60
2019-01-20T22:46:41.480Z,1.37
2019-01-20T22:49:09.379Z,1.20
2019-01-20T22:51:37.341Z,1.20
2019-01-20T22:54:05.339Z,1.30
2019-01-20T22:56:33.347Z,1.33
2019-01-20T22:59:01.291Z,1.10
2019-01-20T23:01:29.744Z,1.30
2019-01-20T23:04:00.716Z,1.37
2019-01-20T23:06:28.646Z,0.90
2019-01-20T23:08:56.603Z,1.20
2019-01-20T23:11:24.503Z,1.50
2019-01-20T23:13:52.463Z,2.00
2019-01-20T23:16:20.509Z,1.50
2019-01-20T23:18:48.483Z,1.10
2019-01-20T23:21:16.391Z,1.60
2019-01-20T23:23:44.339Z,1.10
2019-01-20T23:26:12.239Z,1.10
2019-01-20T23:28:40.161Z,1.20
2019-01-20T23:31:08.099Z,1.10
2019-01-20T23:33:36.163Z,1.20
2019-01-20T23:36:08.091Z,1.10
2019-01-20T23:38:36.024Z,1.20
2019-01-20T23:41:03.935Z,1.20
2019-01-20T23:43:31.897Z,1.00
2019-01-20T23:45:59.955Z,1.10
2019-01-20T23:48:29.479Z,1.30
2019-01-20T23:50:58.391Z,1.30
2019-01-20T23:53:26.314Z,1.20
2019-01-20T23:55:54.413Z,1.30
2019-01-20T23:58:22.323Z,1.10
